createdAt,value
2018-04-30T04:36:52.945Z,94.10
2018-04-30T04:39:22.159Z,95.00
2018-04-30T04:41:49.642Z,95.00
2018-04-30T04:44:17.141Z,95.00
2018-04-30T04:46:45.808Z,95.60
2018-04-30T04:49:13.256Z,95.90
2018-04-30T04:51:40.756Z,96.10
2018-04-30T04:54:08.223Z,95.60
2018-04-30T05:04:03.252Z,97.30
2018-04-30T05:06:30.706Z,97.20
2018-04-30T05:08:58.191Z,97.30
2018-04-30T05:13:54.736Z,98.00
2018-04-30T05:16:22.955Z,98.70
2018-04-30T05:18:50.436Z,98.70
2018-04-30T05:21:17.896Z,99.20
2018-04-30T05:23:45.399Z,99.20
2018-04-30T05:26:12.888Z,99.00
2018-04-30T05:28:41.204Z,98.50
2018-04-30T05:31:08.659Z,98.80
2018-04-30T05:33:36.124Z,99.10
2018-04-30T05:36:03.616Z,99.00
2018-04-30T05:38:31.055Z,99.30
2018-04-30T05:40:59.304Z,99.10
2018-04-30T05:43:26.760Z,99.10
2018-04-30T05:45:54.274Z,99.30
2018-04-30T05:48:21.793Z,99.40
2018-04-30T05:50:49.339Z,99.00
2018-04-30T05:53:16.799Z,98.80
2018-04-30T05:55:45.056Z,99.00
2018-04-30T05:58:12.512Z,99.00
2018-04-30T06:00:40.064Z,98.60
2018-04-30T06:03:07.444Z,98.40
2018-04-30T06:05:34.903Z,98.60
2018-04-30T06:08:03.913Z,98.30
2018-04-30T06:10:31.393Z,98.40
2018-04-30T06:12:58.911Z,98.40
2018-04-30T06:15:26.412Z,98.10
2018-04-30T06:17:53.965Z,97.70
2018-04-30T06:20:22.200Z,98.80
2018-04-30T06:22:49.665Z,98.80
2018-04-30T06:25:17.164Z,97.70
2018-04-30T06:27:44.652Z,98.30
2018-04-30T06:30:12.136Z,98.60
2018-04-30T06:32:39.600Z,98.40
2018-04-30T06:35:07.105Z,97.90
2018-04-30T06:37:34.603Z,98.50
2018-04-30T06:40:02.101Z,97.40
2018-04-30T06:42:30.323Z,97.40
2018-04-30T06:44:57.813Z,97.40
2018-04-30T06:47:26.098Z,97.10
2018-04-30T06:49:53.535Z,97.00
2018-04-30T06:52:21.004Z,96.20
2018-04-30T06:54:49.251Z,96.90
2018-04-30T06:57:16.741Z,96.80
2018-04-30T06:59:45.053Z,96.20
2018-04-30T07:02:12.524Z,96.20
2018-04-30T07:04:40.023Z,95.40
2018-04-30T07:07:09.350Z,95.50
2018-04-30T07:09:37.735Z,93.90
2018-04-30T07:12:05.884Z,93.90
2018-04-30T07:14:34.944Z,94.30
2018-04-30T07:17:02.409Z,94.30
2018-04-30T07:19:31.668Z,94.30
2018-04-30T07:21:59.164Z,94.60
2018-04-30T07:24:27.848Z,94.20
2018-04-30T07:26:55.442Z,93.40
2018-04-30T07:29:24.461Z,93.30
2018-04-30T07:31:51.980Z,93.30
2018-04-30T07:34:20.991Z,94.20
2018-04-30T07:36:48.481Z,94.20
2018-04-30T07:39:16.005Z,93.80
2018-04-30T07:41:44.225Z,92.50
2018-04-30T07:44:11.789Z,92.50
2018-04-30T07:46:39.245Z,93.30
2018-04-30T07:49:06.794Z,92.10
2018-04-30T07:51:34.224Z,91.70
2018-04-30T07:54:02.496Z,91.80
2018-04-30T07:56:29.944Z,91.80
2018-04-30T07:58:57.435Z,92.80
2018-04-30T08:01:24.892Z,91.50
2018-04-30T08:03:52.392Z,90.30
2018-04-30T08:06:20.985Z,89.80
2018-04-30T08:08:48.463Z,90.20
2018-04-30T08:11:15.977Z,89.10
2018-04-30T08:13:43.446Z,88.60
2018-04-30T08:16:10.903Z,88.90
2018-04-30T08:21:08.085Z,86.10
2018-04-30T08:23:35.552Z,87.40
2018-04-30T08:26:03.044Z,87.10
2018-04-30T08:28:30.535Z,88.20
2018-04-30T08:30:58.034Z,86.80
2018-04-30T08:33:25.479Z,85.20
2018-04-30T08:35:53.039Z,81.30
2018-04-30T08:38:20.501Z,80.50
2018-04-30T08:40:48.829Z,77.70
2018-04-30T08:43:16.302Z,78.30
2018-04-30T08:45:43.764Z,81.80
2018-04-30T08:48:11.259Z,81.50
2018-04-30T08:50:38.711Z,80.70
2018-04-30T08:53:06.188Z,83.00
2018-04-30T08:55:34.433Z,75.80
2018-04-30T08:58:01.949Z,75.70
2018-04-30T09:00:29.510Z,73.10
2018-04-30T09:02:57.253Z,70.10
2018-04-30T09:05:25.485Z,70.50
2018-04-30T09:07:52.949Z,70.40
2018-04-30T09:10:20.431Z,67.80
2018-04-30T09:12:47.879Z,70.60
2018-04-30T09:15:15.361Z,70.90
2018-04-30T09:17:43.580Z,65.90
2018-04-30T09:20:11.053Z,65.90
2018-04-30T09:22:38.541Z,67.30
2018-04-30T09:25:06.020Z,66.10
2018-04-30T09:27:33.479Z,65.20
2018-04-30T09:30:00.968Z,63.30
2018-04-30T09:32:28.417Z,66.70
2018-04-30T09:34:55.970Z,56.60
2018-04-30T09:37:23.487Z,61.20
2018-04-30T09:39:50.984Z,62.60
2018-04-30T09:42:18.432Z,60.70
2018-04-30T09:44:45.891Z,77.60
2018-04-30T09:47:13.418Z,80.60
2018-04-30T09:49:40.970Z,56.70
2018-04-30T10:11:59.140Z,98.60
2018-04-30T10:14:26.615Z,93.10
2018-04-30T10:19:24.266Z,55.80
2018-04-30T10:21:51.784Z,56.90
2018-04-30T11:08:58.987Z,53.10
2018-04-30T11:11:26.482Z,53.00
2018-04-30T11:13:53.952Z,51.90
2018-04-30T11:16:21.454Z,51.80
2018-04-30T11:18:48.927Z,52.80
2018-04-30T11:21:16.409Z,49.30
2018-04-30T11:23:43.886Z,48.90
2018-04-30T11:36:06.747Z,44.90
2018-04-30T11:38:34.208Z,45.00
2018-04-30T11:55:54.967Z,42.90
2018-04-30T11:58:23.211Z,47.50
2018-04-30T12:00:51.861Z,43.70
2018-04-30T12:03:19.328Z,44.20
2018-04-30T12:05:46.788Z,43.60
2018-04-30T12:08:14.268Z,44.00
2018-04-30T12:10:41.744Z,44.20
2018-04-30T12:13:09.235Z,44.00
2018-04-30T12:15:36.693Z,44.40
2018-04-30T12:18:04.172Z,45.30
2018-04-30T12:20:31.628Z,42.50
2018-04-30T12:22:59.107Z,46.50
2018-04-30T12:32:53.965Z,39.70
2018-04-30T12:35:21.424Z,39.60
2018-04-30T12:37:50.411Z,43.80
2018-04-30T17:35:48.720Z,49.50
2018-04-30T17:38:17.036Z,53.20
2018-04-30T19:32:28.512Z,66.00
2018-04-30T19:34:56.020Z,66.70
2018-04-30T19:37:24.327Z,65.30
2018-04-30T19:39:51.804Z,65.10
2018-04-30T19:44:49.593Z,66.30
2018-04-30T19:47:17.090Z,67.00
2018-04-30T19:49:44.633Z,66.20
2018-04-30T20:31:58.017Z,67.90
2018-04-30T20:41:54.125Z,74.50
2018-04-30T20:44:21.627Z,77.00
